sensor_id;sensor_type;location;lat;lon;timestamp;P1;durP1;ratioP1;P2;durP2;ratioP2
22995;SDS011;11664;49.774;8.650;2022-07-23T00:02:01;9.50;;;8.98;;
22995;SDS011;11664;49.774;8.650;2022-07-23T00:04:27;10.73;;;10.20;;
22995;SDS011;11664;49.774;8.650;2022-07-23T00:06:53;11.85;;;11.20;;
22995;SDS011;11664;49.774;8.650;2022-07-23T00:09:19;8.77;;;8.18;;
22995;SDS011;11664;49.774;8.650;2022-07-23T00:11:45;10.43;;;9.73;;
22995;SDS011;11664;49.774;8.650;2022-07-23T00:14:11;13.30;;;12.23;;
22995;SDS011;11664;49.774;8.650;2022-07-23T00:16:37;8.10;;;7.70;;
22995;SDS011;11664;49.774;8.650;2022-07-23T00:19:03;8.88;;;8.15;;
22995;SDS011;11664;49.774;8.650;2022-07-23T00:21:29;9.60;;;9.10;;
22995;SDS011;11664;49.774;8.650;2022-07-23T00:23:55;12.45;;;11.75;;
22995;SDS011;11664;49.774;8.650;2022-07-23T00:26:21;15.30;;;14.32;;
22995;SDS011;11664;49.774;8.650;2022-07-23T00:28:47;17.75;;;16.83;;
22995;SDS011;11664;49.774;8.650;2022-07-23T00:31:13;27.42;;;25.95;;
22995;SDS011;11664;49.774;8.650;2022-07-23T00:33:39;22.98;;;21.75;;
22995;SDS011;11664;49.774;8.650;2022-07-23T00:36:05;34.35;;;32.53;;
22995;SDS011;11664;49.774;8.650;2022-07-23T00:38:31;32.47;;;30.65;;
22995;SDS011;11664;49.774;8.650;2022-07-23T00:40:57;43.42;;;41.00;;
22995;SDS011;11664;49.774;8.650;2022-07-23T00:43:23;40.20;;;38.00;;
22995;SDS011;11664;49.774;8.650;2022-07-23T00:45:50;36.28;;;34.42;;
22995;SDS011;11664;49.774;8.650;2022-07-23T00:48:16;37.30;;;35.33;;
22995;SDS011;11664;49.774;8.650;2022-07-23T00:50:42;19.45;;;18.35;;
22995;SDS011;11664;49.774;8.650;2022-07-23T00:53:08;17.52;;;16.52;;
22995;SDS011;11664;49.774;8.650;2022-07-23T00:55:35;28.45;;;26.92;;
22995;SDS011;11664;49.774;8.650;2022-07-23T00:58:01;21.35;;;20.08;;
22995;SDS011;11664;49.774;8.650;2022-07-23T01:00:28;13.85;;;13.15;;
22995;SDS011;11664;49.774;8.650;2022-07-23T01:02:54;24.60;;;23.20;;
22995;SDS011;11664;49.774;8.650;2022-07-23T01:05:20;17.48;;;9.77;;
22995;SDS011;11664;49.774;8.650;2022-07-23T01:07:47;8.15;;;7.55;;
22995;SDS011;11664;49.774;8.650;2022-07-23T01:10:14;9.52;;;8.85;;
22995;SDS011;11664;49.774;8.650;2022-07-23T01:12:59;8.75;;;8.25;;
22995;SDS011;11664;49.774;8.650;2022-07-23T01:15:25;8.70;;;8.25;;
22995;SDS011;11664;49.774;8.650;2022-07-23T01:17:51;10.93;;;10.35;;
22995;SDS011;11664;49.774;8.650;2022-07-23T01:20:18;9.55;;;8.98;;
22995;SDS011;11664;49.774;8.650;2022-07-23T01:22:44;9.90;;;9.32;;
22995;SDS011;11664;49.774;8.650;2022-07-23T01:25:10;8.50;;;8.00;;
22995;SDS011;11664;49.774;8.650;2022-07-23T01:27:36;7.88;;;7.47;;
22995;SDS011;11664;49.774;8.650;2022-07-23T01:30:02;8.40;;;8.00;;
22995;SDS011;11664;49.774;8.650;2022-07-23T01:32:29;7.07;;;6.68;;
22995;SDS011;11664;49.774;8.650;2022-07-23T01:34:55;7.85;;;7.35;;
22995;SDS011;11664;49.774;8.650;2022-07-23T01:37:21;8.38;;;7.97;;
22995;SDS011;11664;49.774;8.650;2022-07-23T01:39:47;8.68;;;8.05;;
22995;SDS011;11664;49.774;8.650;2022-07-23T01:42:13;6.13;;;5.80;;
22995;SDS011;11664;49.774;8.650;2022-07-23T01:44:39;8.68;;;8.07;;
22995;SDS011;11664;49.774;8.650;2022-07-23T01:47:05;9.30;;;8.82;;
22995;SDS011;11664;49.774;8.650;2022-07-23T01:49:31;8.48;;;7.88;;
22995;SDS011;11664;49.774;8.650;2022-07-23T01:51:57;8.88;;;8.38;;
22995;SDS011;11664;49.774;8.650;2022-07-23T01:54:29;8.98;;;8.43;;
22995;SDS011;11664;49.774;8.650;2022-07-23T01:56:56;7.55;;;7.15;;
22995;SDS011;11664;49.774;8.650;2022-07-23T01:59:22;7.38;;;6.88;;
22995;SDS011;11664;49.774;8.650;2022-07-23T02:01:49;8.60;;;8.00;;
22995;SDS011;11664;49.774;8.650;2022-07-23T02:04:18;7.22;;;6.82;;
22995;SDS011;11664;49.774;8.650;2022-07-23T02:06:44;9.60;;;9.00;;
22995;SDS011;11664;49.774;8.650;2022-07-23T02:09:10;7.95;;;7.55;;
22995;SDS011;11664;49.774;8.650;2022-07-23T02:11:36;8.75;;;8.23;;
22995;SDS011;11664;49.774;8.650;2022-07-23T02:14:02;5.85;;;5.45;;
22995;SDS011;11664;49.774;8.650;2022-07-23T02:16:28;10.10;;;9.52;;
22995;SDS011;11664;49.774;8.650;2022-07-23T02:18:55;13.82;;;13.02;;
22995;SDS011;11664;49.774;8.650;2022-07-23T02:21:21;11.10;;;10.45;;
22995;SDS011;11664;49.774;8.650;2022-07-23T02:23:47;7.78;;;7.28;;
22995;SDS011;11664;49.774;8.650;2022-07-23T02:26:13;9.55;;;9.00;;
22995;SDS011;11664;49.774;8.650;2022-07-23T02:28:39;7.35;;;6.57;;
22995;SDS011;11664;49.774;8.650;2022-07-23T02:31:05;6.28;;;5.88;;
22995;SDS011;11664;49.774;8.650;2022-07-23T02:33:31;6.03;;;5.60;;
22995;SDS011;11664;49.774;8.650;2022-07-23T02:35:57;5.78;;;5.40;;
22995;SDS011;11664;49.774;8.650;2022-07-23T02:38:23;5.32;;;4.95;;
22995;SDS011;11664;49.774;8.650;2022-07-23T02:40:49;5.65;;;5.35;;
22995;SDS011;11664;49.774;8.650;2022-07-23T02:43:15;7.72;;;7.28;;
22995;SDS011;11664;49.774;8.650;2022-07-23T02:45:41;7.20;;;6.70;;
22995;SDS011;11664;49.774;8.650;2022-07-23T02:48:07;15.90;;;11.65;;
22995;SDS011;11664;49.774;8.650;2022-07-23T02:50:33;7.85;;;7.43;;
22995;SDS011;11664;49.774;8.650;2022-07-23T02:53:00;8.55;;;8.10;;
22995;SDS011;11664;49.774;8.650;2022-07-23T02:55:26;6.75;;;6.35;;
22995;SDS011;11664;49.774;8.650;2022-07-23T02:57:52;7.07;;;6.68;;
22995;SDS011;11664;49.774;8.650;2022-07-23T03:00:18;5.88;;;5.47;;
22995;SDS011;11664;49.774;8.650;2022-07-23T03:02:44;4.63;;;4.38;;
22995;SDS011;11664;49.774;8.650;2022-07-23T03:05:10;14.65;;;5.88;;
22995;SDS011;11664;49.774;8.650;2022-07-23T03:07:36;7.82;;;7.43;;
22995;SDS011;11664;49.774;8.650;2022-07-23T03:10:02;6.05;;;5.65;;
22995;SDS011;11664;49.774;8.650;2022-07-23T03:12:28;8.90;;;8.38;;
22995;SDS011;11664;49.774;8.650;2022-07-23T03:14:54;12.52;;;11.73;;
22995;SDS011;11664;49.774;8.650;2022-07-23T03:17:20;8.27;;;7.57;;
22995;SDS011;11664;49.774;8.650;2022-07-23T03:19:46;12.68;;;12.07;;
22995;SDS011;11664;49.774;8.650;2022-07-23T03:22:12;10.75;;;10.15;;
22995;SDS011;11664;49.774;8.650;2022-07-23T03:24:38;8.38;;;7.82;;
22995;SDS011;11664;49.774;8.650;2022-07-23T03:27:19;10.32;;;9.77;;
22995;SDS011;11664;49.774;8.650;2022-07-23T03:29:45;9.82;;;9.18;;
22995;SDS011;11664;49.774;8.650;2022-07-23T03:32:11;10.68;;;10.07;;
22995;SDS011;11664;49.774;8.650;2022-07-23T03:34:37;12.32;;;11.63;;
22995;SDS011;11664;49.774;8.650;2022-07-23T03:37:03;18.17;;;17.15;;
22995;SDS011;11664;49.774;8.650;2022-07-23T03:39:29;20.50;;;19.40;;
22995;SDS011;11664;49.774;8.650;2022-07-23T03:41:55;10.48;;;9.93;;
22995;SDS011;11664;49.774;8.650;2022-07-23T03:44:21;12.48;;;11.77;;
22995;SDS011;11664;49.774;8.650;2022-07-23T03:46:48;20.95;;;19.75;;
22995;SDS011;11664;49.774;8.650;2022-07-23T03:49:14;13.77;;;13.07;;
22995;SDS011;11664;49.774;8.650;2022-07-23T03:51:40;13.73;;;12.88;;
22995;SDS011;11664;49.774;8.650;2022-07-23T03:54:06;17.40;;;16.25;;
22995;SDS011;11664;49.774;8.650;2022-07-23T03:56:32;16.73;;;15.88;;
22995;SDS011;11664;49.774;8.650;2022-07-23T03:58:58;14.48;;;13.68;;
22995;SDS011;11664;49.774;8.650;2022-07-23T04:01:24;10.20;;;9.45;;
22995;SDS011;11664;49.774;8.650;2022-07-23T04:03:50;29.48;;;27.00;;
22995;SDS011;11664;49.774;8.650;2022-07-23T04:06:16;25.25;;;23.67;;
22995;SDS011;11664;49.774;8.650;2022-07-23T04:08:42;16.17;;;15.32;;
22995;SDS011;11664;49.774;8.650;2022-07-23T04:11:08;12.27;;;11.43;;
22995;SDS011;11664;49.774;8.650;2022-07-23T04:13:34;18.80;;;17.77;;
22995;SDS011;11664;49.774;8.650;2022-07-23T04:16:00;18.30;;;17.35;;
22995;SDS011;11664;49.774;8.650;2022-07-23T04:18:26;18.77;;;17.77;;
22995;SDS011;11664;49.774;8.650;2022-07-23T04:20:52;19.67;;;18.60;;
22995;SDS011;11664;49.774;8.650;2022-07-23T04:23:18;12.27;;;11.63;;
22995;SDS011;11664;49.774;8.650;2022-07-23T04:25:45;15.48;;;14.57;;
22995;SDS011;11664;49.774;8.650;2022-07-23T04:28:11;17.50;;;16.65;;
22995;SDS011;11664;49.774;8.650;2022-07-23T04:30:37;13.88;;;12.95;;
22995;SDS011;11664;49.774;8.650;2022-07-23T04:33:03;11.90;;;11.10;;
22995;SDS011;11664;49.774;8.650;2022-07-23T04:35:35;11.32;;;10.68;;
22995;SDS011;11664;49.774;8.650;2022-07-23T04:38:02;12.18;;;11.38;;
22995;SDS011;11664;49.774;8.650;2022-07-23T04:40:28;9.23;;;8.63;;
22995;SDS011;11664;49.774;8.650;2022-07-23T04:42:54;15.95;;;15.10;;
22995;SDS011;11664;49.774;8.650;2022-07-23T04:45:20;12.60;;;12.00;;
22995;SDS011;11664;49.774;8.650;2022-07-23T04:47:48;9.93;;;9.32;;
22995;SDS011;11664;49.774;8.650;2022-07-23T04:50:14;11.25;;;10.65;;
22995;SDS011;11664;49.774;8.650;2022-07-23T04:52:43;19.70;;;18.65;;
22995;SDS011;11664;49.774;8.650;2022-07-23T04:55:10;16.88;;;15.88;;
22995;SDS011;11664;49.774;8.650;2022-07-23T04:57:36;13.73;;;12.98;;
22995;SDS011;11664;49.774;8.650;2022-07-23T05:00:02;16.33;;;15.43;;
22995;SDS011;11664;49.774;8.650;2022-07-23T05:02:29;24.00;;;22.73;;
22995;SDS011;11664;49.774;8.650;2022-07-23T05:04:55;18.58;;;17.45;;
22995;SDS011;11664;49.774;8.650;2022-07-23T05:07:21;11.48;;;10.85;;
22995;SDS011;11664;49.774;8.650;2022-07-23T05:09:47;10.18;;;9.68;;
22995;SDS011;11664;49.774;8.650;2022-07-23T05:12:13;10.23;;;9.55;;
22995;SDS011;11664;49.774;8.650;2022-07-23T05:14:39;9.40;;;8.93;;
22995;SDS011;11664;49.774;8.650;2022-07-23T05:17:04;7.90;;;7.50;;
22995;SDS011;11664;49.774;8.650;2022-07-23T05:19:32;8.70;;;8.15;;
22995;SDS011;11664;49.774;8.650;2022-07-23T05:21:58;9.85;;;9.30;;
22995;SDS011;11664;49.774;8.650;2022-07-23T05:24:24;13.20;;;12.32;;
22995;SDS011;11664;49.774;8.650;2022-07-23T05:26:50;24.40;;;22.80;;
22995;SDS011;11664;49.774;8.650;2022-07-23T05:29:16;20.27;;;19.17;;
22995;SDS011;11664;49.774;8.650;2022-07-23T05:31:42;14.77;;;13.85;;
22995;SDS011;11664;49.774;8.650;2022-07-23T05:34:09;15.43;;;14.48;;
22995;SDS011;11664;49.774;8.650;2022-07-23T05:36:35;21.08;;;19.90;;
22995;SDS011;11664;49.774;8.650;2022-07-23T05:39:01;15.18;;;14.20;;
22995;SDS011;11664;49.774;8.650;2022-07-23T05:41:27;8.23;;;7.78;;
22995;SDS011;11664;49.774;8.650;2022-07-23T05:43:53;9.90;;;9.00;;
22995;SDS011;11664;49.774;8.650;2022-07-23T05:46:19;8.05;;;7.65;;
22995;SDS011;11664;49.774;8.650;2022-07-23T05:48:45;7.63;;;7.22;;
22995;SDS011;11664;49.774;8.650;2022-07-23T05:51:18;7.60;;;7.20;;
22995;SDS011;11664;49.774;8.650;2022-07-23T05:53:44;9.88;;;9.15;;
22995;SDS011;11664;49.774;8.650;2022-07-23T05:56:10;6.65;;;6.32;;
22995;SDS011;11664;49.774;8.650;2022-07-23T05:58:36;7.60;;;7.05;;
22995;SDS011;11664;49.774;8.650;2022-07-23T06:01:02;6.30;;;5.80;;
22995;SDS011;11664;49.774;8.650;2022-07-23T06:03:28;11.65;;;11.05;;
22995;SDS011;11664;49.774;8.650;2022-07-23T06:05:54;9.55;;;9.07;;
22995;SDS011;11664;49.774;8.650;2022-07-23T06:08:20;6.03;;;5.72;;
22995;SDS011;11664;49.774;8.650;2022-07-23T06:10:46;7.40;;;6.95;;
22995;SDS011;11664;49.774;8.650;2022-07-23T06:13:11;6.43;;;5.93;;
22995;SDS011;11664;49.774;8.650;2022-07-23T06:15:37;5.70;;;5.30;;
22995;SDS011;11664;49.774;8.650;2022-07-23T06:18:03;5.35;;;4.95;;
22995;SDS011;11664;49.774;8.650;2022-07-23T06:20:29;4.70;;;4.40;;
22995;SDS011;11664;49.774;8.650;2022-07-23T06:22:55;6.30;;;5.90;;
22995;SDS011;11664;49.774;8.650;2022-07-23T06:25:21;14.27;;;13.48;;
22995;SDS011;11664;49.774;8.650;2022-07-23T06:27:47;14.27;;;13.52;;
22995;SDS011;11664;49.774;8.650;2022-07-23T06:30:14;14.48;;;13.73;;
22995;SDS011;11664;49.774;8.650;2022-07-23T06:32:43;14.80;;;14.00;;
22995;SDS011;11664;49.774;8.650;2022-07-23T06:35:09;18.52;;;17.52;;
22995;SDS011;11664;49.774;8.650;2022-07-23T06:37:35;13.10;;;12.40;;
22995;SDS011;11664;49.774;8.650;2022-07-23T06:40:02;5.13;;;4.75;;
22995;SDS011;11664;49.774;8.650;2022-07-23T06:42:28;5.88;;;5.47;;
22995;SDS011;11664;49.774;8.650;2022-07-23T06:44:54;6.75;;;6.38;;
22995;SDS011;11664;49.774;8.650;2022-07-23T06:47:20;4.00;;;3.78;;
22995;SDS011;11664;49.774;8.650;2022-07-23T06:49:46;9.20;;;8.70;;
22995;SDS011;11664;49.774;8.650;2022-07-23T06:52:12;8.13;;;7.70;;
22995;SDS011;11664;49.774;8.650;2022-07-23T06:54:38;8.80;;;8.20;;
22995;SDS011;11664;49.774;8.650;2022-07-23T06:57:04;6.15;;;5.65;;
22995;SDS011;11664;49.774;8.650;2022-07-23T06:59:30;9.65;;;9.02;;
22995;SDS011;11664;49.774;8.650;2022-07-23T07:01:56;9.52;;;9.02;;
22995;SDS011;11664;49.774;8.650;2022-07-23T07:04:23;7.80;;;7.13;;
22995;SDS011;11664;49.774;8.650;2022-07-23T07:06:49;6.15;;;5.75;;
22995;SDS011;11664;49.774;8.650;2022-07-23T07:09:15;7.25;;;6.75;;
22995;SDS011;11664;49.774;8.650;2022-07-23T07:11:41;10.35;;;9.73;;
22995;SDS011;11664;49.774;8.650;2022-07-23T07:14:07;9.88;;;9.30;;
22995;SDS011;11664;49.774;8.650;2022-07-23T07:16:33;7.88;;;7.28;;
22995;SDS011;11664;49.774;8.650;2022-07-23T07:18:59;10.18;;;9.55;;
22995;SDS011;11664;49.774;8.650;2022-07-23T07:21:25;7.97;;;7.43;;
22995;SDS011;11664;49.774;8.650;2022-07-23T07:23:51;13.90;;;13.10;;
22995;SDS011;11664;49.774;8.650;2022-07-23T07:26:17;53.75;;;50.97;;
22995;SDS011;11664;49.774;8.650;2022-07-23T07:28:43;40.20;;;38.00;;
22995;SDS011;11664;49.774;8.650;2022-07-23T07:31:09;17.65;;;16.73;;
22995;SDS011;11664;49.774;8.650;2022-07-23T07:33:35;19.17;;;18.15;;
22995;SDS011;11664;49.774;8.650;2022-07-23T07:36:01;20.30;;;19.20;;
22995;SDS011;11664;49.774;8.650;2022-07-23T07:38:27;18.65;;;17.58;;
22995;SDS011;11664;49.774;8.650;2022-07-23T07:40:53;25.00;;;23.70;;
22995;SDS011;11664;49.774;8.650;2022-07-23T07:43:19;33.38;;;31.60;;
22995;SDS011;11664;49.774;8.650;2022-07-23T07:45:46;33.25;;;31.42;;
22995;SDS011;11664;49.774;8.650;2022-07-23T07:48:12;61.08;;;57.95;;
22995;SDS011;11664;49.774;8.650;2022-07-23T07:50:38;60.63;;;57.60;;
22995;SDS011;11664;49.774;8.650;2022-07-23T07:53:03;60.90;;;57.85;;
22995;SDS011;11664;49.774;8.650;2022-07-23T07:55:30;55.42;;;52.40;;
22995;SDS011;11664;49.774;8.650;2022-07-23T07:57:56;23.63;;;22.38;;
22995;SDS011;11664;49.774;8.650;2022-07-23T08:00:22;9.60;;;9.10;;
22995;SDS011;11664;49.774;8.650;2022-07-23T08:02:49;6.80;;;6.30;;
22995;SDS011;11664;49.774;8.650;2022-07-23T08:05:19;8.02;;;7.55;;
22995;SDS011;11664;49.774;8.650;2022-07-23T08:07:46;4.65;;;4.40;;
22995;SDS011;11664;49.774;8.650;2022-07-23T08:10:12;6.32;;;5.78;;
22995;SDS011;11664;49.774;8.650;2022-07-23T08:12:45;5.93;;;5.53;;
22995;SDS011;11664;49.774;8.650;2022-07-23T08:15:15;5.68;;;5.38;;
22995;SDS011;11664;49.774;8.650;2022-07-23T08:17:42;4.57;;;4.28;;
22995;SDS011;11664;49.774;8.650;2022-07-23T08:20:09;4.28;;;3.97;;
22995;SDS011;11664;49.774;8.650;2022-07-23T08:25:15;4.95;;;4.65;;
22995;SDS011;11664;49.774;8.650;2022-07-23T08:27:41;4.90;;;4.50;;
22995;SDS011;11664;49.774;8.650;2022-07-23T08:30:08;3.88;;;3.67;;
22995;SDS011;11664;49.774;8.650;2022-07-23T08:32:47;4.95;;;4.45;;
22995;SDS011;11664;49.774;8.650;2022-07-23T08:35:37;3.58;;;3.35;;
22995;SDS011;11664;49.774;8.650;2022-07-23T08:38:04;4.47;;;4.10;;
22995;SDS011;11664;49.774;8.650;2022-07-23T08:40:31;4.28;;;3.95;;
22995;SDS011;11664;49.774;8.650;2022-07-23T08:42:57;4.10;;;3.80;;
22995;SDS011;11664;49.774;8.650;2022-07-23T08:45:25;4.13;;;3.83;;
22995;SDS011;11664;49.774;8.650;2022-07-23T08:47:51;4.10;;;3.75;;
22995;SDS011;11664;49.774;8.650;2022-07-23T08:50:18;5.78;;;3.58;;
22995;SDS011;11664;49.774;8.650;2022-07-23T08:52:43;3.95;;;3.65;;
22995;SDS011;11664;49.774;8.650;2022-07-23T08:55:10;3.47;;;3.28;;
22995;SDS011;11664;49.774;8.650;2022-07-23T08:57:36;5.80;;;5.40;;
22995;SDS011;11664;49.774;8.650;2022-07-23T09:00:02;8.13;;;7.63;;
22995;SDS011;11664;49.774;8.650;2022-07-23T09:02:31;6.45;;;6.05;;
22995;SDS011;11664;49.774;8.650;2022-07-23T09:04:57;10.30;;;6.75;;
22995;SDS011;11664;49.774;8.650;2022-07-23T09:07:22;8.35;;;7.75;;
22995;SDS011;11664;49.774;8.650;2022-07-23T09:09:50;8.15;;;7.57;;
22995;SDS011;11664;49.774;8.650;2022-07-23T09:12:31;6.45;;;6.00;;
22995;SDS011;11664;49.774;8.650;2022-07-23T09:14:56;10.98;;;10.38;;
22995;SDS011;11664;49.774;8.650;2022-07-23T09:17:39;14.43;;;13.52;;
22995;SDS011;11664;49.774;8.650;2022-07-23T09:20:09;13.20;;;12.40;;
22995;SDS011;11664;49.774;8.650;2022-07-23T09:22:37;13.18;;;12.40;;
22995;SDS011;11664;49.774;8.650;2022-07-23T09:30:12;9.35;;;8.75;;
22995;SDS011;11664;49.774;8.650;2022-07-23T09:32:39;9.20;;;8.70;;
22995;SDS011;11664;49.774;8.650;2022-07-23T09:35:05;7.03;;;6.63;;
22995;SDS011;11664;49.774;8.650;2022-07-23T09:37:31;7.13;;;6.72;;
22995;SDS011;11664;49.774;8.650;2022-07-23T09:40:04;7.80;;;7.35;;
22995;SDS011;11664;49.774;8.650;2022-07-23T09:42:31;8.23;;;7.63;;
22995;SDS011;11664;49.774;8.650;2022-07-23T09:44:57;8.02;;;7.03;;
22995;SDS011;11664;49.774;8.650;2022-07-23T09:47:26;7.22;;;6.72;;
22995;SDS011;11664;49.774;8.650;2022-07-23T09:52:36;7.85;;;6.80;;
22995;SDS011;11664;49.774;8.650;2022-07-23T09:55:08;14.52;;;13.75;;
22995;SDS011;11664;49.774;8.650;2022-07-23T09:57:34;14.18;;;13.38;;
22995;SDS011;11664;49.774;8.650;2022-07-23T10:00:01;7.30;;;6.95;;
22995;SDS011;11664;49.774;8.650;2022-07-23T10:02:29;6.35;;;5.95;;
22995;SDS011;11664;49.774;8.650;2022-07-23T10:04:57;6.72;;;6.32;;
22995;SDS011;11664;49.774;8.650;2022-07-23T10:07:24;5.35;;;5.05;;
22995;SDS011;11664;49.774;8.650;2022-07-23T10:09:52;3.72;;;3.53;;
22995;SDS011;11664;49.774;8.650;2022-07-23T10:12:19;4.03;;;3.83;;
22995;SDS011;11664;49.774;8.650;2022-07-23T10:15:08;4.28;;;4.05;;
22995;SDS011;11664;49.774;8.650;2022-07-23T10:17:34;13.10;;;4.93;;
22995;SDS011;11664;49.774;8.650;2022-07-23T10:20:00;4.63;;;4.13;;
22995;SDS011;11664;49.774;8.650;2022-07-23T10:22:27;3.60;;;3.38;;
22995;SDS011;11664;49.774;8.650;2022-07-23T10:27:42;5.60;;;5.10;;
22995;SDS011;11664;49.774;8.650;2022-07-23T10:33:32;10.68;;;4.00;;
22995;SDS011;11664;49.774;8.650;2022-07-23T10:36:19;4.07;;;3.88;;
22995;SDS011;11664;49.774;8.650;2022-07-23T10:38:55;4.20;;;3.90;;
22995;SDS011;11664;49.774;8.650;2022-07-23T10:41:46;5.35;;;4.20;;
22995;SDS011;11664;49.774;8.650;2022-07-23T10:44:14;5.28;;;4.78;;
22995;SDS011;11664;49.774;8.650;2022-07-23T10:47:00;7.28;;;4.50;;
22995;SDS011;11664;49.774;8.650;2022-07-23T10:49:28;4.40;;;4.07;;
22995;SDS011;11664;49.774;8.650;2022-07-23T10:52:31;4.15;;;3.85;;
22995;SDS011;11664;49.774;8.650;2022-07-23T10:54:52;5.25;;;4.82;;
22995;SDS011;11664;49.774;8.650;2022-07-23T10:57:20;4.57;;;4.15;;
22995;SDS011;11664;49.774;8.650;2022-07-23T11:02:32;3.80;;;3.60;;
22995;SDS011;11664;49.774;8.650;2022-07-23T11:05:00;3.60;;;3.40;;
22995;SDS011;11664;49.774;8.650;2022-07-23T11:07:32;3.97;;;3.78;;
22995;SDS011;11664;49.774;8.650;2022-07-23T11:09:58;5.75;;;3.97;;
22995;SDS011;11664;49.774;8.650;2022-07-23T11:17:38;4.35;;;3.78;;
22995;SDS011;11664;49.774;8.650;2022-07-23T11:20:22;4.20;;;3.90;;
22995;SDS011;11664;49.774;8.650;2022-07-23T11:22:49;4.53;;;3.72;;
22995;SDS011;11664;49.774;8.650;2022-07-23T11:27:48;3.75;;;3.42;;
22995;SDS011;11664;49.774;8.650;2022-07-23T11:35:38;4.10;;;3.80;;
22995;SDS011;11664;49.774;8.650;2022-07-23T11:38:15;3.83;;;3.63;;
22995;SDS011;11664;49.774;8.650;2022-07-23T11:40:43;4.65;;;4.28;;
22995;SDS011;11664;49.774;8.650;2022-07-23T11:43:10;5.18;;;4.78;;
22995;SDS011;11664;49.774;8.650;2022-07-23T11:45:38;4.03;;;3.72;;
22995;SDS011;11664;49.774;8.650;2022-07-23T11:48:05;3.88;;;3.53;;
22995;SDS011;11664;49.774;8.650;2022-07-23T11:50:33;4.43;;;4.13;;
22995;SDS011;11664;49.774;8.650;2022-07-23T11:53:00;4.82;;;3.63;;
22995;SDS011;11664;49.774;8.650;2022-07-23T11:55:26;5.05;;;4.60;;
22995;SDS011;11664;49.774;8.650;2022-07-23T11:57:53;4.45;;;4.10;;
22995;SDS011;11664;49.774;8.650;2022-07-23T12:00:21;6.47;;;3.40;;
22995;SDS011;11664;49.774;8.650;2022-07-23T12:02:48;4.45;;;4.13;;
22995;SDS011;11664;49.774;8.650;2022-07-23T12:05:16;4.72;;;3.40;;
22995;SDS011;11664;49.774;8.650;2022-07-23T12:07:43;4.55;;;4.25;;
22995;SDS011;11664;49.774;8.650;2022-07-23T12:12:36;3.40;;;3.10;;
22995;SDS011;11664;49.774;8.650;2022-07-23T12:15:18;3.50;;;3.25;;
22995;SDS011;11664;49.774;8.650;2022-07-23T12:17:46;5.40;;;4.38;;
22995;SDS011;11664;49.774;8.650;2022-07-23T12:20:14;4.20;;;3.88;;
22995;SDS011;11664;49.774;8.650;2022-07-23T12:22:43;4.07;;;3.78;;
22995;SDS011;11664;49.774;8.650;2022-07-23T12:25:22;4.10;;;3.90;;
22995;SDS011;11664;49.774;8.650;2022-07-23T12:33:11;4.75;;;4.45;;
22995;SDS011;11664;49.774;8.650;2022-07-23T12:35:44;9.00;;;8.50;;
22995;SDS011;11664;49.774;8.650;2022-07-23T12:38:21;4.47;;;3.88;;
22995;SDS011;11664;49.774;8.650;2022-07-23T12:48:01;6.80;;;5.35;;
22995;SDS011;11664;49.774;8.650;2022-07-23T12:53:02;5.20;;;4.90;;
22995;SDS011;11664;49.774;8.650;2022-07-23T12:55:33;5.32;;;4.95;;
22995;SDS011;11664;49.774;8.650;2022-07-23T12:58:06;4.18;;;3.97;;
22995;SDS011;11664;49.774;8.650;2022-07-23T13:03:28;5.25;;;4.80;;
22995;SDS011;11664;49.774;8.650;2022-07-23T13:05:54;4.70;;;4.40;;
22995;SDS011;11664;49.774;8.650;2022-07-23T13:08:20;3.90;;;3.70;;
22995;SDS011;11664;49.774;8.650;2022-07-23T13:10:47;3.83;;;3.55;;
22995;SDS011;11664;49.774;8.650;2022-07-23T13:13:14;4.13;;;3.83;;
22995;SDS011;11664;49.774;8.650;2022-07-23T13:15:40;4.13;;;3.83;;
22995;SDS011;11664;49.774;8.650;2022-07-23T13:18:06;5.13;;;4.72;;
22995;SDS011;11664;49.774;8.650;2022-07-23T13:20:32;4.30;;;4.00;;
22995;SDS011;11664;49.774;8.650;2022-07-23T13:22:59;3.75;;;3.45;;
22995;SDS011;11664;49.774;8.650;2022-07-23T13:25:25;3.65;;;3.45;;
22995;SDS011;11664;49.774;8.650;2022-07-23T13:27:51;4.70;;;4.30;;
22995;SDS011;11664;49.774;8.650;2022-07-23T13:30:17;4.97;;;4.57;;
22995;SDS011;11664;49.774;8.650;2022-07-23T13:32:42;4.30;;;4.00;;
22995;SDS011;11664;49.774;8.650;2022-07-23T13:35:08;4.90;;;3.65;;
22995;SDS011;11664;49.774;8.650;2022-07-23T13:37:34;3.72;;;3.42;;
22995;SDS011;11664;49.774;8.650;2022-07-23T13:40:00;3.78;;;3.47;;
22995;SDS011;11664;49.774;8.650;2022-07-23T13:42:25;4.65;;;4.35;;
22995;SDS011;11664;49.774;8.650;2022-07-23T13:44:52;6.10;;;5.65;;
22995;SDS011;11664;49.774;8.650;2022-07-23T13:47:17;6.68;;;6.13;;
22995;SDS011;11664;49.774;8.650;2022-07-23T13:49:43;5.57;;;5.22;;
22995;SDS011;11664;49.774;8.650;2022-07-23T13:52:08;7.20;;;6.78;;
22995;SDS011;11664;49.774;8.650;2022-07-23T13:54:34;4.80;;;4.50;;
22995;SDS011;11664;49.774;8.650;2022-07-23T13:57:00;6.47;;;6.03;;
22995;SDS011;11664;49.774;8.650;2022-07-23T13:59:26;5.10;;;4.65;;
22995;SDS011;11664;49.774;8.650;2022-07-23T14:01:52;3.22;;;3.05;;
22995;SDS011;11664;49.774;8.650;2022-07-23T14:04:18;4.03;;;3.72;;
22995;SDS011;11664;49.774;8.650;2022-07-23T14:06:44;3.60;;;3.38;;
22995;SDS011;11664;49.774;8.650;2022-07-23T14:09:10;3.97;;;3.60;;
22995;SDS011;11664;49.774;8.650;2022-07-23T14:11:36;5.70;;;5.30;;
22995;SDS011;11664;49.774;8.650;2022-07-23T14:14:03;3.70;;;3.50;;
22995;SDS011;11664;49.774;8.650;2022-07-23T14:16:29;3.53;;;3.33;;
22995;SDS011;11664;49.774;8.650;2022-07-23T14:18:55;4.07;;;3.78;;
22995;SDS011;11664;49.774;8.650;2022-07-23T14:21:20;3.90;;;3.65;;
22995;SDS011;11664;49.774;8.650;2022-07-23T14:23:46;3.28;;;3.08;;
22995;SDS011;11664;49.774;8.650;2022-07-23T14:26:12;4.55;;;4.22;;
22995;SDS011;11664;49.774;8.650;2022-07-23T14:28:38;4.35;;;4.15;;
22995;SDS011;11664;49.774;8.650;2022-07-23T14:31:03;3.45;;;3.25;;
22995;SDS011;11664;49.774;8.650;2022-07-23T14:33:29;5.43;;;4.93;;
22995;SDS011;11664;49.774;8.650;2022-07-23T14:35:54;3.78;;;3.58;;
22995;SDS011;11664;49.774;8.650;2022-07-23T14:38:20;3.95;;;3.75;;
22995;SDS011;11664;49.774;8.650;2022-07-23T14:40:45;4.70;;;4.40;;
22995;SDS011;11664;49.774;8.650;2022-07-23T14:43:11;4.43;;;4.22;;
22995;SDS011;11664;49.774;8.650;2022-07-23T14:45:36;5.35;;;4.95;;
22995;SDS011;11664;49.774;8.650;2022-07-23T14:48:02;4.22;;;3.97;;
22995;SDS011;11664;49.774;8.650;2022-07-23T14:50:28;4.95;;;4.65;;
22995;SDS011;11664;49.774;8.650;2022-07-23T14:52:53;5.18;;;4.72;;
22995;SDS011;11664;49.774;8.650;2022-07-23T14:55:19;4.60;;;4.30;;
22995;SDS011;11664;49.774;8.650;2022-07-23T14:57:45;4.25;;;3.85;;
22995;SDS011;11664;49.774;8.650;2022-07-23T15:00:11;4.45;;;4.15;;
22995;SDS011;11664;49.774;8.650;2022-07-23T15:02:37;4.60;;;4.25;;
22995;SDS011;11664;49.774;8.650;2022-07-23T15:05:03;4.10;;;3.80;;
22995;SDS011;11664;49.774;8.650;2022-07-23T15:07:29;3.47;;;3.28;;
22995;SDS011;11664;49.774;8.650;2022-07-23T15:09:55;4.97;;;4.57;;
22995;SDS011;11664;49.774;8.650;2022-07-23T15:12:21;4.53;;;4.07;;
22995;SDS011;11664;49.774;8.650;2022-07-23T15:14:47;5.05;;;4.75;;
22995;SDS011;11664;49.774;8.650;2022-07-23T15:17:12;3.78;;;3.47;;
22995;SDS011;11664;49.774;8.650;2022-07-23T15:19:38;4.55;;;4.25;;
22995;SDS011;11664;49.774;8.650;2022-07-23T15:22:04;4.63;;;4.32;;
22995;SDS011;11664;49.774;8.650;2022-07-23T15:24:30;6.72;;;6.13;;
22995;SDS011;11664;49.774;8.650;2022-07-23T15:26:55;4.25;;;3.92;;
22995;SDS011;11664;49.774;8.650;2022-07-23T15:29:21;5.18;;;4.82;;
22995;SDS011;11664;49.774;8.650;2022-07-23T15:31:47;5.78;;;5.45;;
22995;SDS011;11664;49.774;8.650;2022-07-23T15:34:13;5.00;;;4.55;;